עמוד ראשי
METAR-TAF:

METAR-TAF

שדות תעופה :

Valdosta Regional Airport

Valdosta, ג'ורג'יה, ארצות הברית

קו רוחב: 30-47N, קו אורך: 083-17W, גובה: 62מטר

תצפית מזג אוויר נוכחית

הדו"ח נערך לפני 27דקות, בשעה 20:53 UTC
רוח 12קשר מכיוון מזרח/דרום-מזרח עם משבים עד 21קשר
טמפרטורת 33 צלסיוס
לחות 49%
לחץ 1017 hPa
ראות: 16.1קילומטר
עננים פזורים בגובה 5500רגל

METAR: KVLD 172053Z 11012G21KT 10SM SCT055 33/21 A3003 RMK AO2 SLP174 T03280206 56018

זמן: 17:20 (21:20 UTC)

תחזית

הדו"ח נערך לפני 3 שעות ו 48דקות, בשעה 17:32 UTC
תחזית בתוקף מ 17 ב 18 UTC עד 18 ב 18 UTC
רוח 12קשר מכיוון מזרח
ראות: 10קילומטר
מעט עננים בגובה 4000רגל
עננים פזורים בגובה 25000רגל
מ 18 ב 0000UTC
רוח 7קשר מכיוון מזרח/צפון-מזרח
ראות: 10קילומטר
שמיים נקיים

TAF: KVLD 171732Z 1718/1818 10012KT P6SM FEW040 SCT250 FM180000 07007KT P6SM SKC

תצפיות ותחזיות מזג אוויר לגבי יותר מ- 4,000 שדות תעופה ברחבי העולם. דוחות METAR ו- TAF.

התחנות הזמינות מסומנות בנקודות צהובות ואדומות על גבי המפה.

העבר את העכבר לנקודה הצבעונית על מנת לראות את שם התחנה.

לאחר מכן, לחץ כדי לראות את תוכן ואת תחזיות מזג האוויר.

כדי לשנות את המפה: לחץ על הכפתורים הירוקים עם הפלוס השחור כדי להתקרב; על הכפתור הירוק עם המקף כדי להתרחק; או בחיצים הירוקים למפות סמוכות.


METAR-TAF: